sensor_id;sensor_type;location;lat;lon;timestamp;P1;durP1;ratioP1;P2;durP2;ratioP2
10801;SDS011;5453;50.852;7.102;2023-08-31T00:01:27;3.13;;;1.65;;
10801;SDS011;5453;50.852;7.102;2023-08-31T00:04:00;3.10;;;1.48;;
10801;SDS011;5453;50.852;7.102;2023-08-31T00:06:32;2.53;;;1.63;;
10801;SDS011;5453;50.852;7.102;2023-08-31T00:09:05;2.75;;;1.55;;
10801;SDS011;5453;50.852;7.102;2023-08-31T00:11:39;3.78;;;1.50;;
10801;SDS011;5453;50.852;7.102;2023-08-31T00:14:12;1.85;;;1.40;;
10801;SDS011;5453;50.852;7.102;2023-08-31T00:16:45;2.40;;;1.13;;
10801;SDS011;5453;50.852;7.102;2023-08-31T00:19:18;2.22;;;1.40;;
10801;SDS011;5453;50.852;7.102;2023-08-31T00:21:50;3.67;;;1.60;;
10801;SDS011;5453;50.852;7.102;2023-08-31T00:24:23;1.42;;;1.15;;
10801;SDS011;5453;50.852;7.102;2023-08-31T00:27:00;2.00;;;1.25;;
10801;SDS011;5453;50.852;7.102;2023-08-31T00:29:33;3.85;;;1.40;;
10801;SDS011;5453;50.852;7.102;2023-08-31T00:32:12;1.92;;;1.30;;
10801;SDS011;5453;50.852;7.102;2023-08-31T00:34:44;3.25;;;1.10;;
10801;SDS011;5453;50.852;7.102;2023-08-31T00:37:16;1.95;;;1.10;;
10801;SDS011;5453;50.852;7.102;2023-08-31T00:39:51;1.33;;;1.20;;
10801;SDS011;5453;50.852;7.102;2023-08-31T00:42:25;2.10;;;1.60;;
10801;SDS011;5453;50.852;7.102;2023-08-31T00:44:59;2.78;;;1.30;;
10801;SDS011;5453;50.852;7.102;2023-08-31T00:47:33;1.65;;;1.15;;
10801;SDS011;5453;50.852;7.102;2023-08-31T00:50:06;2.78;;;1.42;;
10801;SDS011;5453;50.852;7.102;2023-08-31T00:52:40;1.73;;;1.40;;
10801;SDS011;5453;50.852;7.102;2023-08-31T00:55:14;2.60;;;1.38;;
10801;SDS011;5453;50.852;7.102;2023-08-31T00:57:48;2.38;;;1.08;;
10801;SDS011;5453;50.852;7.102;2023-08-31T01:00:20;4.00;;;1.40;;
10801;SDS011;5453;50.852;7.102;2023-08-31T01:03:01;2.53;;;1.20;;
10801;SDS011;5453;50.852;7.102;2023-08-31T01:05:44;2.58;;;1.63;;
10801;SDS011;5453;50.852;7.102;2023-08-31T01:08:25;1.35;;;1.10;;
10801;SDS011;5453;50.852;7.102;2023-08-31T01:11:15;2.10;;;1.40;;
10801;SDS011;5453;50.852;7.102;2023-08-31T01:14:02;2.38;;;1.30;;
10801;SDS011;5453;50.852;7.102;2023-08-31T01:16:43;2.78;;;1.20;;
10801;SDS011;5453;50.852;7.102;2023-08-31T01:19:26;1.98;;;1.33;;
10801;SDS011;5453;50.852;7.102;2023-08-31T01:22:16;2.22;;;1.75;;
10801;SDS011;5453;50.852;7.102;2023-08-31T01:25:00;3.35;;;1.27;;
10801;SDS011;5453;50.852;7.102;2023-08-31T01:27:34;1.85;;;1.27;;
10801;SDS011;5453;50.852;7.102;2023-08-31T01:30:08;3.30;;;1.42;;
10801;SDS011;5453;50.852;7.102;2023-08-31T01:32:43;3.28;;;1.40;;
10801;SDS011;5453;50.852;7.102;2023-08-31T01:35:16;1.23;;;1.10;;
10801;SDS011;5453;50.852;7.102;2023-08-31T01:37:53;1.70;;;1.02;;
10801;SDS011;5453;50.852;7.102;2023-08-31T01:40:34;1.92;;;1.20;;
10801;SDS011;5453;50.852;7.102;2023-08-31T01:43:11;1.30;;;1.00;;
10801;SDS011;5453;50.852;7.102;2023-08-31T01:45:45;3.20;;;1.27;;
10801;SDS011;5453;50.852;7.102;2023-08-31T01:48:19;1.50;;;1.25;;
10801;SDS011;5453;50.852;7.102;2023-08-31T01:50:51;1.33;;;1.00;;
10801;SDS011;5453;50.852;7.102;2023-08-31T01:53:24;2.05;;;1.10;;
10801;SDS011;5453;50.852;7.102;2023-08-31T01:55:57;1.58;;;1.08;;
10801;SDS011;5453;50.852;7.102;2023-08-31T01:58:30;1.67;;;1.00;;
10801;SDS011;5453;50.852;7.102;2023-08-31T02:01:02;1.40;;;1.17;;
10801;SDS011;5453;50.852;7.102;2023-08-31T02:03:35;2.63;;;1.27;;
10801;SDS011;5453;50.852;7.102;2023-08-31T02:06:07;4.50;;;1.30;;
10801;SDS011;5453;50.852;7.102;2023-08-31T02:08:40;2.20;;;1.13;;
10801;SDS011;5453;50.852;7.102;2023-08-31T02:11:15;1.80;;;1.38;;
10801;SDS011;5453;50.852;7.102;2023-08-31T02:13:48;1.75;;;1.20;;
10801;SDS011;5453;50.852;7.102;2023-08-31T02:16:20;1.70;;;1.60;;
10801;SDS011;5453;50.852;7.102;2023-08-31T02:18:53;2.05;;;1.50;;
10801;SDS011;5453;50.852;7.102;2023-08-31T02:21:27;3.65;;;1.23;;
10801;SDS011;5453;50.852;7.102;2023-08-31T02:23:59;2.90;;;1.00;;
10801;SDS011;5453;50.852;7.102;2023-08-31T02:26:33;2.83;;;1.52;;
10801;SDS011;5453;50.852;7.102;2023-08-31T02:29:07;1.98;;;1.30;;
10801;SDS011;5453;50.852;7.102;2023-08-31T02:31:39;1.45;;;1.13;;
10801;SDS011;5453;50.852;7.102;2023-08-31T02:34:12;1.85;;;1.13;;
10801;SDS011;5453;50.852;7.102;2023-08-31T02:36:46;1.40;;;1.00;;
10801;SDS011;5453;50.852;7.102;2023-08-31T02:39:18;1.52;;;1.13;;
10801;SDS011;5453;50.852;7.102;2023-08-31T02:41:52;2.80;;;1.40;;
10801;SDS011;5453;50.852;7.102;2023-08-31T02:44:25;1.70;;;1.23;;
10801;SDS011;5453;50.852;7.102;2023-08-31T02:46:57;2.40;;;1.52;;
10801;SDS011;5453;50.852;7.102;2023-08-31T02:49:30;2.63;;;1.40;;
10801;SDS011;5453;50.852;7.102;2023-08-31T02:52:03;1.98;;;1.30;;
10801;SDS011;5453;50.852;7.102;2023-08-31T02:54:36;2.10;;;1.38;;
10801;SDS011;5453;50.852;7.102;2023-08-31T02:57:09;2.35;;;1.40;;
10801;SDS011;5453;50.852;7.102;2023-08-31T02:59:42;1.50;;;1.20;;
10801;SDS011;5453;50.852;7.102;2023-08-31T03:02:14;2.03;;;1.40;;
10801;SDS011;5453;50.852;7.102;2023-08-31T03:04:47;3.65;;;1.27;;
10801;SDS011;5453;50.852;7.102;2023-08-31T03:07:19;2.15;;;1.38;;
10801;SDS011;5453;50.852;7.102;2023-08-31T03:09:52;2.55;;;1.42;;
10801;SDS011;5453;50.852;7.102;2023-08-31T03:12:27;2.95;;;1.33;;
10801;SDS011;5453;50.852;7.102;2023-08-31T03:14:59;3.03;;;1.23;;
10801;SDS011;5453;50.852;7.102;2023-08-31T03:17:32;2.03;;;1.15;;
10801;SDS011;5453;50.852;7.102;2023-08-31T03:20:04;3.40;;;1.40;;
10801;SDS011;5453;50.852;7.102;2023-08-31T03:22:39;2.15;;;1.20;;
10801;SDS011;5453;50.852;7.102;2023-08-31T03:25:11;1.60;;;1.20;;
10801;SDS011;5453;50.852;7.102;2023-08-31T03:27:45;2.55;;;1.90;;
10801;SDS011;5453;50.852;7.102;2023-08-31T03:30:21;3.97;;;1.60;;
10801;SDS011;5453;50.852;7.102;2023-08-31T03:32:53;2.40;;;1.30;;
10801;SDS011;5453;50.852;7.102;2023-08-31T03:35:26;4.18;;;1.42;;
10801;SDS011;5453;50.852;7.102;2023-08-31T03:38:02;1.80;;;1.40;;
10801;SDS011;5453;50.852;7.102;2023-08-31T03:40:35;2.13;;;1.40;;
10801;SDS011;5453;50.852;7.102;2023-08-31T03:43:08;3.17;;;1.52;;
10801;SDS011;5453;50.852;7.102;2023-08-31T03:45:41;2.08;;;1.27;;
10801;SDS011;5453;50.852;7.102;2023-08-31T03:48:13;3.47;;;1.60;;
10801;SDS011;5453;50.852;7.102;2023-08-31T03:50:48;2.17;;;1.25;;
10801;SDS011;5453;50.852;7.102;2023-08-31T03:53:21;1.88;;;1.30;;
10801;SDS011;5453;50.852;7.102;2023-08-31T03:55:57;3.13;;;1.30;;
10801;SDS011;5453;50.852;7.102;2023-08-31T03:58:31;1.95;;;1.63;;
10801;SDS011;5453;50.852;7.102;2023-08-31T04:01:03;2.20;;;1.50;;
10801;SDS011;5453;50.852;7.102;2023-08-31T04:03:37;3.05;;;1.45;;
10801;SDS011;5453;50.852;7.102;2023-08-31T04:06:09;2.20;;;1.50;;
10801;SDS011;5453;50.852;7.102;2023-08-31T04:08:44;2.17;;;1.60;;
10801;SDS011;5453;50.852;7.102;2023-08-31T04:11:17;2.95;;;1.65;;
10801;SDS011;5453;50.852;7.102;2023-08-31T04:13:51;2.80;;;1.65;;
10801;SDS011;5453;50.852;7.102;2023-08-31T04:16:26;1.88;;;1.40;;
10801;SDS011;5453;50.852;7.102;2023-08-31T04:18:59;2.40;;;1.42;;
10801;SDS011;5453;50.852;7.102;2023-08-31T04:21:31;2.25;;;1.55;;
10801;SDS011;5453;50.852;7.102;2023-08-31T04:24:04;2.40;;;1.38;;
10801;SDS011;5453;50.852;7.102;2023-08-31T04:26:37;2.92;;;1.90;;
10801;SDS011;5453;50.852;7.102;2023-08-31T04:29:11;2.33;;;1.48;;
10801;SDS011;5453;50.852;7.102;2023-08-31T04:31:43;2.20;;;1.25;;
10801;SDS011;5453;50.852;7.102;2023-08-31T04:34:15;2.50;;;1.50;;
10801;SDS011;5453;50.852;7.102;2023-08-31T04:36:48;2.47;;;1.55;;
10801;SDS011;5453;50.852;7.102;2023-08-31T04:39:20;3.83;;;1.92;;
10801;SDS011;5453;50.852;7.102;2023-08-31T04:41:52;3.58;;;1.73;;
10801;SDS011;5453;50.852;7.102;2023-08-31T04:44:29;2.85;;;1.98;;
10801;SDS011;5453;50.852;7.102;2023-08-31T04:47:02;3.63;;;1.60;;
10801;SDS011;5453;50.852;7.102;2023-08-31T04:49:34;3.38;;;1.70;;
10801;SDS011;5453;50.852;7.102;2023-08-31T04:52:07;2.67;;;1.73;;
10801;SDS011;5453;50.852;7.102;2023-08-31T04:54:39;2.97;;;1.70;;
10801;SDS011;5453;50.852;7.102;2023-08-31T04:57:12;2.65;;;1.48;;
10801;SDS011;5453;50.852;7.102;2023-08-31T04:59:46;4.15;;;1.45;;
10801;SDS011;5453;50.852;7.102;2023-08-31T05:02:18;2.33;;;1.48;;
10801;SDS011;5453;50.852;7.102;2023-08-31T05:04:50;2.53;;;1.67;;
10801;SDS011;5453;50.852;7.102;2023-08-31T05:07:23;2.92;;;1.90;;
10801;SDS011;5453;50.852;7.102;2023-08-31T05:09:55;2.33;;;1.60;;
10801;SDS011;5453;50.852;7.102;2023-08-31T05:12:30;2.78;;;1.60;;
10801;SDS011;5453;50.852;7.102;2023-08-31T05:15:05;2.70;;;1.45;;
10801;SDS011;5453;50.852;7.102;2023-08-31T05:17:39;2.15;;;1.40;;
10801;SDS011;5453;50.852;7.102;2023-08-31T05:20:12;1.83;;;1.40;;
10801;SDS011;5453;50.852;7.102;2023-08-31T05:22:44;3.63;;;1.45;;
10801;SDS011;5453;50.852;7.102;2023-08-31T05:25:17;1.88;;;1.30;;
10801;SDS011;5453;50.852;7.102;2023-08-31T05:27:49;2.75;;;1.85;;
10801;SDS011;5453;50.852;7.102;2023-08-31T05:30:23;2.50;;;1.60;;
10801;SDS011;5453;50.852;7.102;2023-08-31T05:32:59;2.20;;;1.33;;
10801;SDS011;5453;50.852;7.102;2023-08-31T05:35:31;1.98;;;1.50;;
10801;SDS011;5453;50.852;7.102;2023-08-31T05:38:04;1.98;;;1.30;;
10801;SDS011;5453;50.852;7.102;2023-08-31T05:40:39;3.00;;;1.52;;
10801;SDS011;5453;50.852;7.102;2023-08-31T05:43:15;3.38;;;1.50;;
10801;SDS011;5453;50.852;7.102;2023-08-31T05:45:50;2.05;;;1.40;;
10801;SDS011;5453;50.852;7.102;2023-08-31T05:48:22;4.43;;;1.60;;
10801;SDS011;5453;50.852;7.102;2023-08-31T05:50:58;3.13;;;1.70;;
10801;SDS011;5453;50.852;7.102;2023-08-31T05:53:30;2.75;;;1.60;;
10801;SDS011;5453;50.852;7.102;2023-08-31T05:56:03;2.00;;;1.30;;
10801;SDS011;5453;50.852;7.102;2023-08-31T05:58:36;2.90;;;1.70;;
10801;SDS011;5453;50.852;7.102;2023-08-31T06:01:10;4.45;;;1.88;;
10801;SDS011;5453;50.852;7.102;2023-08-31T06:03:42;2.60;;;1.60;;
10801;SDS011;5453;50.852;7.102;2023-08-31T06:06:14;2.63;;;1.73;;
10801;SDS011;5453;50.852;7.102;2023-08-31T06:08:47;5.05;;;1.83;;
10801;SDS011;5453;50.852;7.102;2023-08-31T06:11:19;3.42;;;1.90;;
10801;SDS011;5453;50.852;7.102;2023-08-31T06:13:51;4.47;;;1.88;;
10801;SDS011;5453;50.852;7.102;2023-08-31T06:16:25;6.03;;;2.00;;
10801;SDS011;5453;50.852;7.102;2023-08-31T06:19:00;4.50;;;2.13;;
10801;SDS011;5453;50.852;7.102;2023-08-31T06:21:33;2.25;;;1.60;;
10801;SDS011;5453;50.852;7.102;2023-08-31T06:24:06;4.50;;;1.92;;
10801;SDS011;5453;50.852;7.102;2023-08-31T06:26:44;2.25;;;1.40;;
10801;SDS011;5453;50.852;7.102;2023-08-31T06:29:16;3.00;;;1.35;;
10801;SDS011;5453;50.852;7.102;2023-08-31T06:31:50;2.95;;;1.40;;
10801;SDS011;5453;50.852;7.102;2023-08-31T06:34:22;2.53;;;1.35;;
10801;SDS011;5453;50.852;7.102;2023-08-31T06:36:55;4.78;;;1.40;;
10801;SDS011;5453;50.852;7.102;2023-08-31T06:39:28;1.98;;;1.00;;
10801;SDS011;5453;50.852;7.102;2023-08-31T06:42:00;2.25;;;1.10;;
10801;SDS011;5453;50.852;7.102;2023-08-31T06:44:34;3.35;;;1.27;;
10801;SDS011;5453;50.852;7.102;2023-08-31T06:47:08;4.55;;;1.50;;
10801;SDS011;5453;50.852;7.102;2023-08-31T06:52:13;3.15;;;1.20;;
10801;SDS011;5453;50.852;7.102;2023-08-31T06:54:46;3.30;;;1.10;;
10801;SDS011;5453;50.852;7.102;2023-08-31T06:57:18;2.92;;;1.13;;
10801;SDS011;5453;50.852;7.102;2023-08-31T06:59:50;2.97;;;0.90;;
10801;SDS011;5453;50.852;7.102;2023-08-31T07:02:26;5.35;;;1.23;;
10801;SDS011;5453;50.852;7.102;2023-08-31T07:04:58;1.50;;;0.95;;
10801;SDS011;5453;50.852;7.102;2023-08-31T07:07:31;3.35;;;1.00;;
10801;SDS011;5453;50.852;7.102;2023-08-31T07:10:04;2.35;;;1.10;;
10801;SDS011;5453;50.852;7.102;2023-08-31T07:12:37;2.38;;;0.95;;
10801;SDS011;5453;50.852;7.102;2023-08-31T07:15:09;1.80;;;0.88;;
10801;SDS011;5453;50.852;7.102;2023-08-31T07:17:43;2.65;;;0.95;;
10801;SDS011;5453;50.852;7.102;2023-08-31T07:20:16;2.97;;;1.00;;
10801;SDS011;5453;50.852;7.102;2023-08-31T07:22:51;4.47;;;1.05;;
10801;SDS011;5453;50.852;7.102;2023-08-31T07:25:25;2.78;;;0.95;;
10801;SDS011;5453;50.852;7.102;2023-08-31T07:27:57;1.60;;;0.90;;
10801;SDS011;5453;50.852;7.102;2023-08-31T07:30:30;2.60;;;0.98;;
10801;SDS011;5453;50.852;7.102;2023-08-31T07:33:08;3.08;;;0.95;;
10801;SDS011;5453;50.852;7.102;2023-08-31T07:35:40;2.28;;;0.95;;
10801;SDS011;5453;50.852;7.102;2023-08-31T07:38:12;3.00;;;1.20;;
10801;SDS011;5453;50.852;7.102;2023-08-31T07:40:48;3.08;;;0.90;;
10801;SDS011;5453;50.852;7.102;2023-08-31T07:43:20;2.35;;;0.90;;
10801;SDS011;5453;50.852;7.102;2023-08-31T07:45:53;2.35;;;1.10;;
10801;SDS011;5453;50.852;7.102;2023-08-31T07:48:27;1.08;;;0.70;;
10801;SDS011;5453;50.852;7.102;2023-08-31T07:50:59;2.92;;;0.82;;
10801;SDS011;5453;50.852;7.102;2023-08-31T07:53:33;2.38;;;0.80;;
10801;SDS011;5453;50.852;7.102;2023-08-31T07:56:07;1.40;;;0.68;;
10801;SDS011;5453;50.852;7.102;2023-08-31T07:58:39;1.60;;;0.70;;
10801;SDS011;5453;50.852;7.102;2023-08-31T08:01:12;2.15;;;0.70;;
10801;SDS011;5453;50.852;7.102;2023-08-31T08:03:46;1.95;;;0.90;;
10801;SDS011;5453;50.852;7.102;2023-08-31T08:06:18;2.35;;;0.70;;
10801;SDS011;5453;50.852;7.102;2023-08-31T08:08:51;2.35;;;0.68;;
10801;SDS011;5453;50.852;7.102;2023-08-31T08:11:23;1.23;;;0.75;;
10801;SDS011;5453;50.852;7.102;2023-08-31T08:13:56;1.42;;;0.73;;
10801;SDS011;5453;50.852;7.102;2023-08-31T08:16:28;1.60;;;0.93;;
10801;SDS011;5453;50.852;7.102;2023-08-31T08:19:02;2.80;;;0.80;;
10801;SDS011;5453;50.852;7.102;2023-08-31T08:21:37;1.85;;;0.93;;
10801;SDS011;5453;50.852;7.102;2023-08-31T08:24:09;3.05;;;1.00;;
10801;SDS011;5453;50.852;7.102;2023-08-31T08:26:41;1.83;;;1.10;;
10801;SDS011;5453;50.852;7.102;2023-08-31T08:29:14;4.13;;;0.93;;
10801;SDS011;5453;50.852;7.102;2023-08-31T08:31:46;1.08;;;0.73;;
10801;SDS011;5453;50.852;7.102;2023-08-31T08:34:20;2.63;;;0.75;;
10801;SDS011;5453;50.852;7.102;2023-08-31T08:36:55;1.85;;;0.65;;
10801;SDS011;5453;50.852;7.102;2023-08-31T08:39:27;1.88;;;0.70;;
10801;SDS011;5453;50.852;7.102;2023-08-31T08:42:00;2.65;;;0.70;;
10801;SDS011;5453;50.852;7.102;2023-08-31T08:44:36;2.08;;;0.80;;
10801;SDS011;5453;50.852;7.102;2023-08-31T08:47:12;1.80;;;0.60;;
10801;SDS011;5453;50.852;7.102;2023-08-31T08:49:47;2.40;;;0.80;;
10801;SDS011;5453;50.852;7.102;2023-08-31T08:52:20;2.85;;;0.60;;
10801;SDS011;5453;50.852;7.102;2023-08-31T08:54:52;2.05;;;0.63;;
10801;SDS011;5453;50.852;7.102;2023-08-31T08:57:27;1.10;;;0.68;;
10801;SDS011;5453;50.852;7.102;2023-08-31T08:59:59;2.70;;;0.85;;
10801;SDS011;5453;50.852;7.102;2023-08-31T09:02:33;1.08;;;0.68;;
10801;SDS011;5453;50.852;7.102;2023-08-31T09:05:07;3.25;;;0.90;;
10801;SDS011;5453;50.852;7.102;2023-08-31T09:07:57;1.20;;;0.65;;
10801;SDS011;5453;50.852;7.102;2023-08-31T09:10:33;2.10;;;0.70;;
10801;SDS011;5453;50.852;7.102;2023-08-31T09:13:07;1.95;;;0.70;;
10801;SDS011;5453;50.852;7.102;2023-08-31T09:18:22;0.88;;;0.50;;
10801;SDS011;5453;50.852;7.102;2023-08-31T09:20:57;1.70;;;0.65;;
10801;SDS011;5453;50.852;7.102;2023-08-31T09:26:02;2.13;;;0.60;;
10801;SDS011;5453;50.852;7.102;2023-08-31T09:31:15;0.95;;;0.70;;
10801;SDS011;5453;50.852;7.102;2023-08-31T09:33:51;0.85;;;0.60;;
10801;SDS011;5453;50.852;7.102;2023-08-31T09:36:25;1.15;;;0.80;;
10801;SDS011;5453;50.852;7.102;2023-08-31T09:38:59;1.92;;;0.70;;
10801;SDS011;5453;50.852;7.102;2023-08-31T09:41:31;2.05;;;0.80;;
10801;SDS011;5453;50.852;7.102;2023-08-31T09:44:16;0.93;;;0.70;;
10801;SDS011;5453;50.852;7.102;2023-08-31T09:46:50;0.80;;;0.70;;
10801;SDS011;5453;50.852;7.102;2023-08-31T09:49:23;2.85;;;0.70;;
10801;SDS011;5453;50.852;7.102;2023-08-31T09:51:58;1.55;;;0.60;;
10801;SDS011;5453;50.852;7.102;2023-08-31T09:54:36;0.95;;;0.70;;
10801;SDS011;5453;50.852;7.102;2023-08-31T09:57:12;3.03;;;0.63;;
10801;SDS011;5453;50.852;7.102;2023-08-31T09:59:46;2.22;;;0.60;;
10801;SDS011;5453;50.852;7.102;2023-08-31T10:02:19;4.40;;;0.77;;
10801;SDS011;5453;50.852;7.102;2023-08-31T10:04:51;0.73;;;0.60;;
10801;SDS011;5453;50.852;7.102;2023-08-31T10:07:29;1.20;;;0.70;;
10801;SDS011;5453;50.852;7.102;2023-08-31T10:10:02;1.92;;;0.60;;
10801;SDS011;5453;50.852;7.102;2023-08-31T10:12:35;1.27;;;0.70;;
10801;SDS011;5453;50.852;7.102;2023-08-31T10:15:10;1.50;;;0.57;;
10801;SDS011;5453;50.852;7.102;2023-08-31T10:17:42;2.17;;;0.70;;
10801;SDS011;5453;50.852;7.102;2023-08-31T10:20:16;1.63;;;0.70;;
10801;SDS011;5453;50.852;7.102;2023-08-31T10:22:50;1.95;;;1.00;;
10801;SDS011;5453;50.852;7.102;2023-08-31T10:25:23;2.15;;;0.60;;
10801;SDS011;5453;50.852;7.102;2023-08-31T10:27:57;1.55;;;0.90;;
10801;SDS011;5453;50.852;7.102;2023-08-31T10:30:29;1.45;;;0.90;;
10801;SDS011;5453;50.852;7.102;2023-08-31T10:35:54;0.52;;;0.50;;
10801;SDS011;5453;50.852;7.102;2023-08-31T10:38:29;0.82;;;0.70;;
10801;SDS011;5453;50.852;7.102;2023-08-31T10:41:16;1.75;;;0.70;;
10801;SDS011;5453;50.852;7.102;2023-08-31T10:43:52;1.75;;;0.52;;
10801;SDS011;5453;50.852;7.102;2023-08-31T10:46:28;0.88;;;0.73;;
10801;SDS011;5453;50.852;7.102;2023-08-31T10:49:12;1.33;;;0.70;;
10801;SDS011;5453;50.852;7.102;2023-08-31T10:51:48;1.45;;;0.70;;
10801;SDS011;5453;50.852;7.102;2023-08-31T10:54:26;1.75;;;0.60;;
10801;SDS011;5453;50.852;7.102;2023-08-31T10:57:04;2.13;;;0.95;;
10801;SDS011;5453;50.852;7.102;2023-08-31T10:59:41;0.88;;;0.60;;
10801;SDS011;5453;50.852;7.102;2023-08-31T11:02:29;1.52;;;0.80;;
10801;SDS011;5453;50.852;7.102;2023-08-31T11:05:08;3.13;;;0.80;;
10801;SDS011;5453;50.852;7.102;2023-08-31T11:07:42;2.90;;;1.40;;
10801;SDS011;5453;50.852;7.102;2023-08-31T11:10:19;3.58;;;1.35;;
10801;SDS011;5453;50.852;7.102;2023-08-31T11:12:54;4.82;;;2.05;;
10801;SDS011;5453;50.852;7.102;2023-08-31T11:15:27;11.68;;;5.05;;
10801;SDS011;5453;50.852;7.102;2023-08-31T11:18:00;31.85;;;17.30;;
10801;SDS011;5453;50.852;7.102;2023-08-31T11:20:34;34.45;;;21.02;;
10801;SDS011;5453;50.852;7.102;2023-08-31T11:23:06;68.93;;;42.10;;
10801;SDS011;5453;50.852;7.102;2023-08-31T11:25:40;53.00;;;33.35;;
10801;SDS011;5453;50.852;7.102;2023-08-31T11:28:13;81.40;;;49.92;;
10801;SDS011;5453;50.852;7.102;2023-08-31T11:30:48;53.08;;;31.45;;
10801;SDS011;5453;50.852;7.102;2023-08-31T11:33:21;29.73;;;18.35;;
10801;SDS011;5453;50.852;7.102;2023-08-31T11:35:53;24.00;;;15.48;;
10801;SDS011;5453;50.852;7.102;2023-08-31T11:38:26;33.90;;;19.92;;
10801;SDS011;5453;50.852;7.102;2023-08-31T11:41:01;22.83;;;12.43;;
10801;SDS011;5453;50.852;7.102;2023-08-31T11:43:37;16.35;;;9.30;;
10801;SDS011;5453;50.852;7.102;2023-08-31T11:46:09;8.55;;;4.05;;
10801;SDS011;5453;50.852;7.102;2023-08-31T11:48:42;5.95;;;3.20;;
10801;SDS011;5453;50.852;7.102;2023-08-31T11:51:15;6.65;;;3.00;;
10801;SDS011;5453;50.852;7.102;2023-08-31T11:53:49;7.32;;;2.95;;
10801;SDS011;5453;50.852;7.102;2023-08-31T11:56:23;7.65;;;2.78;;
10801;SDS011;5453;50.852;7.102;2023-08-31T11:58:55;7.05;;;2.00;;
10801;SDS011;5453;50.852;7.102;2023-08-31T12:01:27;5.70;;;2.63;;
10801;SDS011;5453;50.852;7.102;2023-08-31T12:04:00;43.30;;;21.05;;
10801;SDS011;5453;50.852;7.102;2023-08-31T12:06:32;28.85;;;14.50;;
10801;SDS011;5453;50.852;7.102;2023-08-31T12:09:05;15.55;;;7.38;;
10801;SDS011;5453;50.852;7.102;2023-08-31T12:11:43;11.70;;;5.63;;
10801;SDS011;5453;50.852;7.102;2023-08-31T12:14:22;10.50;;;4.60;;
10801;SDS011;5453;50.852;7.102;2023-08-31T12:17:00;4.20;;;2.20;;
10801;SDS011;5453;50.852;7.102;2023-08-31T12:19:36;5.95;;;2.78;;
10801;SDS011;5453;50.852;7.102;2023-08-31T12:22:09;5.03;;;1.85;;
10801;SDS011;5453;50.852;7.102;2023-08-31T12:24:44;3.53;;;1.75;;
10801;SDS011;5453;50.852;7.102;2023-08-31T12:27:17;3.05;;;1.45;;
10801;SDS011;5453;50.852;7.102;2023-08-31T12:29:50;2.75;;;1.35;;
10801;SDS011;5453;50.852;7.102;2023-08-31T12:32:22;2.33;;;1.17;;
10801;SDS011;5453;50.852;7.102;2023-08-31T12:34:54;3.03;;;1.10;;
10801;SDS011;5453;50.852;7.102;2023-08-31T12:37:26;2.13;;;1.17;;
10801;SDS011;5453;50.852;7.102;2023-08-31T12:39:59;1.23;;;0.80;;
10801;SDS011;5453;50.852;7.102;2023-08-31T12:42:36;1.90;;;1.08;;
10801;SDS011;5453;50.852;7.102;2023-08-31T12:45:08;24.25;;;10.68;;
10801;SDS011;5453;50.852;7.102;2023-08-31T12:47:41;37.40;;;17.55;;
10801;SDS011;5453;50.852;7.102;2023-08-31T12:50:13;29.10;;;14.07;;
10801;SDS011;5453;50.852;7.102;2023-08-31T12:52:47;22.65;;;10.77;;
10801;SDS011;5453;50.852;7.102;2023-08-31T12:55:19;15.18;;;7.80;;
10801;SDS011;5453;50.852;7.102;2023-08-31T12:57:53;11.90;;;5.80;;
10801;SDS011;5453;50.852;7.102;2023-08-31T13:00:25;9.52;;;4.45;;
10801;SDS011;5453;50.852;7.102;2023-08-31T13:02:58;7.20;;;3.90;;
10801;SDS011;5453;50.852;7.102;2023-08-31T13:05:31;7.45;;;3.30;;
10801;SDS011;5453;50.852;7.102;2023-08-31T13:08:04;12.30;;;5.20;;
10801;SDS011;5453;50.852;7.102;2023-08-31T13:10:37;70.63;;;27.23;;
10801;SDS011;5453;50.852;7.102;2023-08-31T13:13:11;33.03;;;15.55;;
10801;SDS011;5453;50.852;7.102;2023-08-31T13:15:46;19.42;;;8.60;;
10801;SDS011;5453;50.852;7.102;2023-08-31T13:18:19;19.60;;;8.98;;
10801;SDS011;5453;50.852;7.102;2023-08-31T13:20:51;14.02;;;7.07;;
10801;SDS011;5453;50.852;7.102;2023-08-31T13:23:25;11.57;;;5.32;;
10801;SDS011;5453;50.852;7.102;2023-08-31T13:25:57;15.77;;;7.10;;
10801;SDS011;5453;50.852;7.102;2023-08-31T13:28:31;10.75;;;5.38;;
10801;SDS011;5453;50.852;7.102;2023-08-31T13:31:03;9.82;;;4.85;;
10801;SDS011;5453;50.852;7.102;2023-08-31T13:33:39;7.72;;;3.80;;
10801;SDS011;5453;50.852;7.102;2023-08-31T13:36:12;4.70;;;2.60;;
10801;SDS011;5453;50.852;7.102;2023-08-31T13:38:45;5.03;;;2.50;;
10801;SDS011;5453;50.852;7.102;2023-08-31T13:41:17;5.95;;;2.20;;
10801;SDS011;5453;50.852;7.102;2023-08-31T13:43:54;5.28;;;1.92;;
10801;SDS011;5453;50.852;7.102;2023-08-31T13:46:26;3.20;;;1.73;;
10801;SDS011;5453;50.852;7.102;2023-08-31T13:48:59;3.10;;;1.60;;
10801;SDS011;5453;50.852;7.102;2023-08-31T13:51:35;2.28;;;1.67;;
10801;SDS011;5453;50.852;7.102;2023-08-31T13:54:07;3.65;;;1.70;;
10801;SDS011;5453;50.852;7.102;2023-08-31T13:56:40;3.15;;;1.77;;
10801;SDS011;5453;50.852;7.102;2023-08-31T13:59:14;3.65;;;1.60;;
10801;SDS011;5453;50.852;7.102;2023-08-31T14:01:49;3.25;;;1.60;;
10801;SDS011;5453;50.852;7.102;2023-08-31T14:04:22;2.75;;;1.38;;
10801;SDS011;5453;50.852;7.102;2023-08-31T14:06:54;4.95;;;1.85;;
10801;SDS011;5453;50.852;7.102;2023-08-31T14:09:27;2.83;;;1.50;;
10801;SDS011;5453;50.852;7.102;2023-08-31T14:12:03;2.67;;;1.50;;
10801;SDS011;5453;50.852;7.102;2023-08-31T14:14:37;3.45;;;1.42;;
10801;SDS011;5453;50.852;7.102;2023-08-31T14:17:11;5.03;;;1.60;;
10801;SDS011;5453;50.852;7.102;2023-08-31T14:19:46;3.22;;;1.55;;
10801;SDS011;5453;50.852;7.102;2023-08-31T14:22:19;2.83;;;1.58;;
10801;SDS011;5453;50.852;7.102;2023-08-31T14:24:52;2.47;;;1.50;;
10801;SDS011;5453;50.852;7.102;2023-08-31T14:27:25;4.80;;;1.48;;
10801;SDS011;5453;50.852;7.102;2023-08-31T14:29:59;3.03;;;1.42;;
10801;SDS011;5453;50.852;7.102;2023-08-31T14:32:32;2.28;;;1.20;;
10801;SDS011;5453;50.852;7.102;2023-08-31T14:35:05;2.53;;;1.13;;
10801;SDS011;5453;50.852;7.102;2023-08-31T14:37:38;3.38;;;1.40;;
10801;SDS011;5453;50.852;7.102;2023-08-31T14:40:10;4.75;;;1.30;;
10801;SDS011;5453;50.852;7.102;2023-08-31T14:42:44;2.03;;;1.05;;
10801;SDS011;5453;50.852;7.102;2023-08-31T14:45:17;1.70;;;1.10;;
10801;SDS011;5453;50.852;7.102;2023-08-31T14:47:50;1.33;;;1.02;;
10801;SDS011;5453;50.852;7.102;2023-08-31T14:50:22;1.77;;;0.95;;
10801;SDS011;5453;50.852;7.102;2023-08-31T14:52:54;1.50;;;1.00;;
10801;SDS011;5453;50.852;7.102;2023-08-31T14:55:27;2.30;;;1.15;;
10801;SDS011;5453;50.852;7.102;2023-08-31T14:58:02;2.13;;;1.20;;
10801;SDS011;5453;50.852;7.102;2023-08-31T15:00:37;2.58;;;1.02;;
10801;SDS011;5453;50.852;7.102;2023-08-31T15:03:10;2.55;;;0.93;;
10801;SDS011;5453;50.852;7.102;2023-08-31T15:05:42;1.33;;;1.00;;
10801;SDS011;5453;50.852;7.102;2023-08-31T15:08:15;2.80;;;1.13;;
10801;SDS011;5453;50.852;7.102;2023-08-31T15:10:47;1.67;;;1.17;;
10801;SDS011;5453;50.852;7.102;2023-08-31T15:13:19;3.40;;;1.25;;
10801;SDS011;5453;50.852;7.102;2023-08-31T15:15:56;2.53;;;1.00;;
10801;SDS011;5453;50.852;7.102;2023-08-31T15:18:30;2.55;;;1.08;;
10801;SDS011;5453;50.852;7.102;2023-08-31T15:21:02;2.85;;;1.33;;
10801;SDS011;5453;50.852;7.102;2023-08-31T15:23:34;2.33;;;1.08;;
10801;SDS011;5453;50.852;7.102;2023-08-31T15:26:10;2.55;;;1.10;;
10801;SDS011;5453;50.852;7.102;2023-08-31T15:28:43;2.00;;;1.10;;
10801;SDS011;5453;50.852;7.102;2023-08-31T15:31:17;2.10;;;1.00;;
10801;SDS011;5453;50.852;7.102;2023-08-31T15:33:49;1.15;;;0.82;;
10801;SDS011;5453;50.852;7.102;2023-08-31T15:36:22;2.03;;;1.25;;
10801;SDS011;5453;50.852;7.102;2023-08-31T15:38:54;2.70;;;1.10;;
10801;SDS011;5453;50.852;7.102;2023-08-31T15:41:26;1.88;;;1.00;;
10801;SDS011;5453;50.852;7.102;2023-08-31T15:44:07;1.52;;;1.00;;
10801;SDS011;5453;50.852;7.102;2023-08-31T15:46:41;1.55;;;1.00;;
10801;SDS011;5453;50.852;7.102;2023-08-31T15:49:13;1.70;;;0.95;;
10801;SDS011;5453;50.852;7.102;2023-08-31T15:51:48;1.58;;;0.80;;
10801;SDS011;5453;50.852;7.102;2023-08-31T15:54:21;2.72;;;1.40;;